Time;durP1;ratioP1;P1;durP2;ratioP2;P2;SDS_P1;SDS_P2;PMS_P1;PMS_P2;Temp;Humidity;BMP_temperature;BMP_pressure;BME280_temperature;BME280_humidity;BME280_pressure;Samples;Min_cycle;Max_cycle;Signal;HPM_P1;HPM_P2
2023/02/13 00:01:48;;;;;;;9.03;2.90;;;;;;;-0.97;59.84;101764.77;1687787;85;21502;-65
2023/02/13 00:04:17;;;;;;;11.85;3.33;;;;;;;-0.97;59.92;101766.59;1687442;85;21102;-67
2023/02/13 00:06:47;;;;;;;11.65;3.80;;;;;;;-0.98;59.97;101767.08;1687658;85;21284;-67
2023/02/13 00:09:16;;;;;;;9.98;3.90;;;;;;;-0.98;59.98;101763.52;1687744;85;21450;-67
2023/02/13 00:11:47;;;;;;;8.18;2.80;;;;;;;-0.99;60.17;101759.09;1687340;85;21078;-67
2023/02/13 00:14:15;;;;;;;7.55;3.30;;;;;;;-0.99;60.31;101759.96;1687572;84;21714;-68
2023/02/13 00:16:44;;;;;;;18.32;4.95;;;;;;;-0.99;60.34;101755.06;1687484;85;21038;-69
2023/02/13 00:19:13;;;;;;;10.55;3.62;;;;;;;-1.00;60.44;101752.84;1687423;85;21031;-69
2023/02/13 00:21:42;;;;;;;8.40;3.15;;;;;;;-1.00;60.44;101750.64;1687343;85;21124;-67
2023/02/13 00:24:11;;;;;;;11.15;3.95;;;;;;;-1.01;60.56;101742.18;1687158;85;21030;-67
2023/02/13 00:26:40;;;;;;;15.15;3.80;;;;;;;-1.03;60.59;101743.61;1687538;85;21066;-67
2023/02/13 00:29:10;;;;;;;9.93;4.05;;;;;;;-1.05;60.59;101736.11;1687401;85;21058;-67
2023/02/13 00:31:39;;;;;;;14.53;4.45;;;;;;;-1.05;60.60;101737.45;1687331;85;21447;-67
2023/02/13 00:34:10;;;;;;;10.58;4.03;;;;;;;-1.05;60.68;101740.15;1687735;85;21274;-67
2023/02/13 00:36:39;;;;;;;12.65;4.72;;;;;;;-1.07;60.76;101733.99;1687742;85;22021;-67
2023/02/13 00:39:12;;;;;;;13.40;3.92;;;;;;;-1.06;60.70;101730.83;1687477;85;21554;-68
2023/02/13 00:41:42;;;;;;;13.30;4.35;;;;;;;-1.06;60.77;101730.83;1670819;85;21039;-68
2023/02/13 00:44:11;;;;;;;12.30;3.83;;;;;;;-1.07;60.82;101733.99;1687607;85;21078;-65
2023/02/13 00:46:40;;;;;;;9.45;3.60;;;;;;;-1.11;60.73;101731.09;1669824;85;21407;-68
2023/02/13 00:49:08;;;;;;;7.30;2.77;;;;;;;-1.14;60.84;101725.90;1687593;85;21470;-68
2023/02/13 00:51:37;;;;;;;7.33;3.12;;;;;;;-1.13;60.91;101720.04;1687243;85;21509;-65
2023/02/13 00:54:06;;;;;;;7.62;2.70;;;;;;;-1.15;60.92;101718.78;1687348;84;21099;-67
2023/02/13 00:56:37;;;;;;;9.30;2.77;;;;;;;-1.15;60.86;101712.54;1687040;85;21075;-68
2023/02/13 00:59:07;;;;;;;6.37;2.55;;;;;;;-1.17;60.85;101715.33;1687033;85;21058;-68
2023/02/13 01:01:37;;;;;;;7.55;2.62;;;;;;;-1.18;60.94;101710.90;1687534;85;21489;-65
2023/02/13 01:04:07;;;;;;;8.15;3.35;;;;;;;-1.17;61.01;101711.77;1687325;84;21097;-66
2023/02/13 01:06:36;;;;;;;6.28;2.55;;;;;;;-1.19;61.01;101706.48;1687370;85;21497;-66
2023/02/13 01:09:06;;;;;;;6.83;2.20;;;;;;;-1.19;61.10;101701.10;1687402;85;21050;-67
2023/02/13 01:11:38;;;;;;;6.28;2.17;;;;;;;-1.18;61.13;101704.66;1687430;85;21038;-68
2023/02/13 01:14:06;;;;;;;7.40;2.10;;;;;;;-1.19;61.23;101702.45;1687434;84;21003;-67
2023/02/13 01:16:36;;;;;;;5.60;2.37;;;;;;;-1.19;61.28;101702.92;1687204;85;21026;-68
2023/02/13 01:19:05;;;;;;;10.80;2.00;;;;;;;-1.20;61.37;101697.16;1687460;85;21011;-68
2023/02/13 01:21:34;;;;;;;6.17;2.20;;;;;;;-1.20;61.39;101699.84;1687415;85;21544;-68
2023/02/13 01:24:12;;;;;;;9.38;2.62;;;;;;;-1.19;61.47;101688.13;1687351;85;21031;-67
2023/02/13 01:26:41;;;;;;;6.75;2.20;;;;;;;-1.20;61.50;101685.05;1687532;85;21423;-67
2023/02/13 01:29:12;;;;;;;16.25;3.15;;;;;;;-1.22;61.59;101683.80;1687348;85;21050;-68
2023/02/13 01:31:41;;;;;;;10.30;2.33;;;;;;;-1.22;61.69;101686.48;1687147;84;21446;-68
2023/02/13 01:34:11;;;;;;;6.72;2.22;;;;;;;-1.20;61.79;101684.58;1687512;85;21480;-69
2023/02/13 01:36:43;;;;;;;6.92;2.22;;;;;;;-1.20;61.82;101674.30;1687243;85;21431;-67
2023/02/13 01:39:11;;;;;;;8.35;2.37;;;;;;;-1.20;61.94;101681.02;1687344;85;21027;-67
2023/02/13 01:41:40;;;;;;;5.55;2.25;;;;;;;-1.20;62.07;101671.61;1687499;85;21478;-68
2023/02/13 01:44:53;;;;;;;4.50;2.25;;;;;;;-1.19;62.18;101676.03;1687508;85;21034;-66
2023/02/13 01:47:30;;;;;;;10.72;3.08;;;;;;;-1.17;62.24;101674.12;1687421;85;21063;-68
2023/02/13 01:50:42;;;;;;;6.78;2.42;;;;;;;-1.18;62.33;101672.38;1687507;84;21067;-67
2023/02/13 01:53:22;;;;;;;7.87;2.20;;;;;;;-1.18;62.43;101679.11;1687022;85;21469;-68
2023/02/13 01:56:11;;;;;;;6.33;2.25;;;;;;;-1.19;62.60;101676.03;1687062;85;21094;-68
2023/02/13 01:58:42;;;;;;;7.37;2.70;;;;;;;-1.19;62.82;101673.34;1669779;85;21063;-68
2023/02/13 02:01:12;;;;;;;6.67;2.47;;;;;;;-1.21;63.03;101665.84;1687378;85;21047;-70
2023/02/13 02:03:50;;;;;;;6.50;2.30;;;;;;;-1.21;63.17;101664.50;1687365;85;21556;-69
2023/02/13 02:06:24;;;;;;;10.32;2.87;;;;;;;-1.20;63.32;101663.06;1687551;85;21473;-69
2023/02/13 02:08:59;;;;;;;12.20;3.60;;;;;;;-1.20;63.44;101657.69;1687619;84;21034;-68
2023/02/13 02:11:56;;;;;;;8.60;2.65;;;;;;;-1.21;63.55;101648.36;1687513;85;21943;-67
2023/02/13 02:14:27;;;;;;;5.80;2.30;;;;;;;-1.20;63.68;101651.44;1687334;85;21030;-67
2023/02/13 02:16:57;;;;;;;6.33;1.98;;;;;;;-1.18;63.80;101638.77;1687272;85;21482;-68
2023/02/13 02:19:41;;;;;;;6.33;2.02;;;;;;;-1.20;63.92;101641.55;1687682;85;21493;-68
2023/02/13 02:22:57;;;;;;;6.90;2.10;;;;;;;-1.21;64.08;101647.89;1687385;85;21047;-69
2023/02/13 02:25:53;;;;;;;4.50;1.95;;;;;;;-1.21;64.24;101649.23;1686950;85;21423;-65
2023/02/13 02:28:48;;;;;;;4.67;2.05;;;;;;;-1.22;64.47;101642.12;1687166;85;21062;-67
2023/02/13 02:31:49;;;;;;;4.85;1.87;;;;;;;-1.25;64.66;101636.93;1687446;85;21535;-68
2023/02/13 02:34:44;;;;;;;8.75;2.17;;;;;;;-1.24;64.87;101640.00;1687628;85;21450;-67
2023/02/13 02:38:06;;;;;;;4.33;2.20;;;;;;;-1.22;64.95;101642.60;1687343;85;21034;-68
2023/02/13 02:40:51;;;;;;;4.75;2.37;;;;;;;-1.21;65.08;101634.92;1687854;85;21054;-66
2023/02/13 02:43:29;;;;;;;5.87;2.00;;;;;;;-1.22;65.23;101639.44;1687422;85;21472;-67
2023/02/13 02:46:19;;;;;;;4.53;1.85;;;;;;;-1.22;65.24;101631.37;1686806;85;21477;-67
2023/02/13 02:52:09;;;;;;;5.00;2.30;;;;;;;-1.24;65.43;101631.08;1690647;85;21430;-68
2023/02/13 02:55:06;;;;;;;7.60;3.02;;;;;;;-1.27;65.69;101638.84;1691585;85;21041;-70
2023/02/13 03:06:16;;;;;;;6.70;2.70;;;;;;;-1.33;66.38;101643.20;1690588;85;21476;-69
2023/02/13 03:14:26;;;;;;;5.78;2.22;;;;;;;-1.37;66.81;101630.43;1690609;85;21442;-67
2023/02/13 03:23:15;;;;;;;7.37;2.37;;;;;;;-1.36;67.27;101629.47;1604106;88;21093;-68
2023/02/13 03:26:04;;;;;;;7.00;2.40;;;;;;;-1.39;67.70;101623.41;1604058;88;21057;-68
2023/02/13 03:32:00;;;;;;;6.03;2.65;;;;;;;-1.48;68.02;101626.64;1586540;90;21094;-67
2023/02/13 03:40:28;;;;;;;8.03;3.37;;;;;;;-1.49;68.67;101607.44;1690482;85;21026;-66
2023/02/13 03:43:11;;;;;;;7.35;2.70;;;;;;;-1.51;68.72;101610.22;1690721;85;21027;-69
2023/02/13 03:45:51;;;;;;;7.58;2.83;;;;;;;-1.50;68.91;101608.40;1690675;85;21089;-69
2023/02/13 03:51:28;;;;;;;6.28;2.70;;;;;;;-1.47;68.90;101598.81;1687414;85;21019;-68
2023/02/13 03:54:01;;;;;;;8.58;2.95;;;;;;;-1.50;68.88;101590.93;1687225;85;21029;-69
2023/02/13 03:59:23;;;;;;;7.33;2.65;;;;;;;-1.50;68.93;101590.93;1688075;84;21036;-70
2023/02/13 04:02:14;;;;;;;7.28;2.67;;;;;;;-1.51;69.02;101583.83;1687428;85;21031;-69
2023/02/13 04:04:53;;;;;;;8.60;3.15;;;;;;;-1.49;68.99;101584.12;1687450;85;21041;-68
2023/02/13 04:07:29;;;;;;;7.55;3.00;;;;;;;-1.45;68.98;101586.14;1687380;85;21461;-69
2023/02/13 04:10:05;;;;;;;9.75;3.77;;;;;;;-1.44;68.98;101577.13;1687422;85;22097;-68
2023/02/13 04:13:13;;;;;;;8.58;3.55;;;;;;;-1.41;68.94;101582.31;1687429;85;21050;-66
2023/02/13 04:16:04;;;;;;;10.82;4.15;;;;;;;-1.39;69.00;101565.62;1687524;84;21470;-67
2023/02/13 04:18:33;;;;;;;12.70;4.55;;;;;;;-1.36;68.97;101571.67;1687849;85;20998;-68
2023/02/13 04:21:06;;;;;;;10.05;4.03;;;;;;;-1.36;68.89;101562.74;1687227;85;21062;-68
2023/02/13 04:23:35;;;;;;;8.70;3.55;;;;;;;-1.36;68.98;101566.30;1687073;85;21066;-67
2023/02/13 04:26:08;;;;;;;10.95;3.65;;;;;;;-1.34;69.04;101564.86;1687446;85;21085;-69
2023/02/13 04:28:37;;;;;;;10.58;3.83;;;;;;;-1.32;69.08;101566.98;1687531;85;21505;-67
2023/02/13 04:31:06;;;;;;;7.67;3.20;;;;;;;-1.32;69.12;101566.98;1687361;85;21034;-67
2023/02/13 04:33:36;;;;;;;8.75;3.45;;;;;;;-1.32;69.14;101565.63;1687207;85;21066;-65
2023/02/13 04:36:06;;;;;;;7.70;3.17;;;;;;;-1.28;69.21;101565.86;1687224;85;21030;-69
2023/02/13 04:38:35;;;;;;;7.28;2.90;;;;;;;-1.28;69.26;101565.86;1687606;84;21042;-67
2023/02/13 04:41:05;;;;;;;7.20;2.87;;;;;;;-1.26;69.34;101561.26;1687598;85;21094;-65
2023/02/13 04:43:34;;;;;;;6.45;2.30;;;;;;;-1.25;69.36;101552.23;1687364;85;21054;-67
2023/02/13 04:46:04;;;;;;;7.47;2.92;;;;;;;-1.24;69.38;101554.44;1687678;85;21054;-68
2023/02/13 04:48:33;;;;;;;7.58;2.72;;;;;;;-1.27;69.55;101542.05;1688950;85;21077;-67
2023/02/13 04:51:02;;;;;;;8.80;3.45;;;;;;;-1.27;69.62;101557.31;1690366;85;21007;-68
2023/02/13 04:53:31;;;;;;;9.98;4.20;;;;;;;-1.26;69.74;101555.02;1690241;85;21805;-68
2023/02/13 04:56:00;;;;;;;9.18;3.60;;;;;;;-1.25;69.79;101554.92;1690122;85;21038;-68
2023/02/13 04:58:29;;;;;;;9.23;3.92;;;;;;;-1.24;69.86;101560.69;1690333;84;21463;-67
2023/02/13 05:01:00;;;;;;;7.30;3.00;;;;;;;-1.22;69.93;101556.08;1690654;85;21622;-65
2023/02/13 05:03:29;;;;;;;10.08;2.95;;;;;;;-1.19;70.03;101556.37;1690368;85;21430;-67
2023/02/13 05:05:58;;;;;;;9.28;3.00;;;;;;;-1.18;70.07;101552.24;1690204;85;20991;-68
2023/02/13 05:08:28;;;;;;;5.90;2.50;;;;;;;-1.15;70.14;101549.36;1690478;85;21066;-67
2023/02/13 05:10:57;;;;;;;6.85;2.80;;;;;;;-1.13;70.16;101549.27;1690390;85;21830;-68
2023/02/13 05:13:28;;;;;;;4.58;2.42;;;;;;;-1.12;70.16;101545.14;1634749;88;21580;-70
2023/02/13 05:15:57;;;;;;;8.60;3.08;;;;;;;-1.08;70.19;101551.19;1669982;86;21519;-69
2023/02/13 05:18:26;;;;;;;6.25;2.83;;;;;;;-1.05;70.28;101558.59;1669646;84;21088;-69
2023/02/13 05:23:43;;;;;;;11.10;4.20;;;;;;;-1.04;70.34;101557.62;1669692;84;21057;-68
2023/02/13 05:26:13;;;;;;;8.85;3.22;;;;;;;-1.03;70.41;101548.61;1669558;86;21487;-69
2023/02/13 05:31:31;;;;;;;6.62;3.02;;;;;;;-1.01;70.58;101550.72;1694822;83;21102;-68
2023/02/13 05:34:00;;;;;;;10.50;4.05;;;;;;;-1.01;70.69;101549.38;1727594;83;21453;-70
2023/02/13 05:36:30;;;;;;;8.08;3.85;;;;;;;-1.03;70.76;101551.77;1727735;83;21189;-69
2023/02/13 05:39:00;;;;;;;9.75;3.87;;;;;;;-1.00;70.88;101553.80;1669532;86;21529;-69
2023/02/13 05:41:29;;;;;;;8.90;3.85;;;;;;;-0.97;70.91;101544.19;1634719;88;21500;-68
2023/02/13 05:43:59;;;;;;;9.05;4.10;;;;;;;-0.90;70.96;101551.39;1669823;84;21530;-67
2023/02/13 05:46:28;;;;;;;10.85;4.00;;;;;;;-0.85;70.96;101553.80;1634687;88;21166;-68
2023/02/13 05:49:00;;;;;;;8.78;3.45;;;;;;;-0.82;70.95;101560.33;1661617;86;21069;-69
2023/02/13 05:51:31;;;;;;;7.10;3.45;;;;;;;-0.79;70.91;101561.48;1619197;88;21078;-69
2023/02/13 05:54:00;;;;;;;10.28;3.70;;;;;;;-0.75;70.98;101571.95;1619427;88;21063;-67
2023/02/13 05:56:28;;;;;;;9.13;3.60;;;;;;;-0.72;71.03;101564.16;1632071;86;21158;-67
2023/02/13 05:58:57;;;;;;;9.28;4.05;;;;;;;-0.70;71.08;101566.28;1712928;84;21078;-69
2023/02/13 06:01:26;;;;;;;16.25;6.33;;;;;;;-0.67;71.10;101558.02;1712876;84;21477;-67
2023/02/13 06:03:56;;;;;;;25.92;9.35;;;;;;;-0.66;71.01;101553.02;1674105;86;21039;-68
2023/02/13 06:06:26;;;;;;;14.80;6.40;;;;;;;-0.64;71.15;101547.09;1674174;86;21113;-67
2023/02/13 06:08:56;;;;;;;10.23;4.00;;;;;;;-0.63;71.30;101535.36;1713118;84;21030;-67
2023/02/13 06:11:25;;;;;;;10.15;3.72;;;;;;;-0.61;71.36;101539.30;1712877;84;21085;-68
2023/02/13 06:13:54;;;;;;;8.85;3.92;;;;;;;-0.59;71.42;101536.89;1712682;84;21422;-67
2023/02/13 06:16:24;;;;;;;10.98;4.28;;;;;;;-0.57;71.43;101533.62;1712230;84;21061;-68
2023/02/13 06:18:53;;;;;;;13.45;4.05;;;;;;;-0.54;71.48;101535.25;1712739;84;21038;-68
2023/02/13 06:21:22;;;;;;;11.43;3.80;;;;;;;-0.50;71.49;101537.64;1712985;84;21528;-68
2023/02/13 06:23:51;;;;;;;8.40;3.77;;;;;;;-0.47;71.52;101532.06;1674098;86;21467;-69
2023/02/13 06:26:20;;;;;;;9.58;3.90;;;;;;;-0.45;71.50;101530.13;1673815;86;21162;-68
2023/02/13 06:28:49;;;;;;;9.00;3.65;;;;;;;-0.44;71.56;101522.92;1712783;84;21082;-69
2023/02/13 06:31:17;;;;;;;10.93;4.40;;;;;;;-0.42;71.55;101519.16;1713022;84;21046;-68
2023/02/13 06:33:47;;;;;;;11.83;3.87;;;;;;;-0.40;71.54;101513.20;1712948;84;21082;-68
2023/02/13 06:36:16;;;;;;;7.87;3.62;;;;;;;-0.37;71.65;101516.17;1673934;85;21944;-67
2023/02/13 06:38:46;;;;;;;13.40;3.95;;;;;;;-0.35;71.64;101508.37;1712954;84;21477;-67
2023/02/13 06:41:15;;;;;;;7.40;3.60;;;;;;;-0.30;71.64;101500.48;1674056;86;21443;-68
2023/02/13 06:43:46;;;;;;;10.82;4.53;;;;;;;-0.25;71.68;101496.52;1712690;84;21085;-68
2023/02/13 06:46:15;;;;;;;11.60;4.65;;;;;;;-0.21;71.55;101510.64;1674151;86;21435;-70
2023/02/13 06:48:44;;;;;;;13.72;4.67;;;;;;;-0.20;71.55;101502.45;1717194;83;21470;-69
2023/02/13 06:51:13;;;;;;;11.40;5.03;;;;;;;-0.17;71.59;101498.70;1724896;83;21038;-68
2023/02/13 06:53:42;;;;;;;11.68;4.65;;;;;;;-0.15;71.48;101504.84;1687173;85;21082;-67
2023/02/13 06:56:11;;;;;;;15.65;4.70;;;;;;;-0.15;71.48;101496.77;1687318;85;21074;-68
2023/02/13 06:58:39;;;;;;;12.55;4.58;;;;;;;-0.16;71.54;101498.59;1687524;85;21565;-69
2023/02/13 07:01:09;;;;;;;9.73;4.15;;;;;;;-0.14;71.59;101495.80;1687504;85;21042;-69
2023/02/13 07:03:38;;;;;;;14.58;5.33;;;;;;;-0.13;71.58;101497.05;1687406;85;21026;-69
2023/02/13 07:06:08;;;;;;;18.05;5.28;;;;;;;-0.09;71.70;101488.27;1687324;85;21442;-70
2023/02/13 07:08:37;;;;;;;11.25;5.58;;;;;;;-0.06;71.71;101490.77;1687110;85;21462;-67
2023/02/13 07:11:07;;;;;;;18.45;5.78;;;;;;;-0.01;71.74;101487.27;1687464;84;21030;-69
2023/02/13 07:13:37;;;;;;;13.62;5.55;;;;;;;0.10;71.74;101489.28;1687569;84;21002;-69
2023/02/13 07:16:07;;;;;;;11.50;5.55;;;;;;;0.17;71.55;101482.02;1687558;85;21569;-68
2023/02/13 07:18:36;;;;;;;13.25;6.00;;;;;;;0.25;71.44;101478.31;1687360;85;21470;-69
2023/02/13 07:21:07;;;;;;;12.37;6.12;;;;;;;0.31;71.33;101481.94;1687710;85;21034;-70
2023/02/13 07:23:36;;;;;;;13.35;6.60;;;;;;;0.36;71.14;101476.71;1687450;85;21090;-68
2023/02/13 07:26:05;;;;;;;16.15;6.37;;;;;;;0.39;71.03;101473.80;1687446;85;21524;-70
2023/02/13 07:28:35;;;;;;;13.55;5.78;;;;;;;0.43;70.93;101465.88;1687530;85;21030;-69
2023/02/13 07:31:04;;;;;;;11.60;5.62;;;;;;;0.45;70.88;101451.33;1670177;85;21073;-68
2023/02/13 07:33:34;;;;;;;16.70;6.12;;;;;;;0.49;70.78;101450.63;1687597;85;21449;-68
2023/02/13 07:36:04;;;;;;;20.05;6.90;;;;;;;0.54;70.59;101453.86;1687609;85;21718;-68
2023/02/13 07:38:35;;;;;;;16.37;6.37;;;;;;;0.56;70.44;101447.88;1687683;84;20999;-69
2023/02/13 07:41:05;;;;;;;16.80;6.35;;;;;;;0.56;70.47;101443.83;1687502;85;21050;-69
2023/02/13 07:43:36;;;;;;;17.17;6.05;;;;;;;0.58;70.52;101446.80;1687221;85;21030;-69
2023/02/13 07:46:05;;;;;;;13.38;6.12;;;;;;;0.62;70.40;101442.91;1687402;85;21032;-70
2023/02/13 07:48:34;;;;;;;14.70;6.92;;;;;;;0.64;70.42;101458.98;1687512;84;21136;-69
2023/02/13 07:51:04;;;;;;;21.15;6.72;;;;;;;0.70;70.41;101456.38;1687146;84;21110;-69
2023/02/13 07:53:33;;;;;;;18.02;6.33;;;;;;;0.69;70.23;101448.77;1687400;85;21081;-67
2023/02/13 07:56:07;;;;;;;12.68;6.42;;;;;;;0.70;70.34;101446.94;1687455;85;21474;-68
2023/02/13 07:58:36;;;;;;;25.57;6.87;;;;;;;0.76;70.44;101454.59;1687413;85;21426;-68
2023/02/13 08:01:09;;;;;;;23.98;7.35;;;;;;;0.80;70.21;101445.31;1687079;85;21081;-68
2023/02/13 08:03:38;;;;;;;16.77;6.85;;;;;;;0.85;70.41;101435.91;1687133;85;21303;-68
2023/02/13 08:06:07;;;;;;;48.38;8.35;;;;;;;1.04;70.24;101440.84;1687010;85;21058;-70
2023/02/13 08:08:37;;;;;;;36.15;8.85;;;;;;;1.17;69.82;101434.06;1687073;85;21438;-68
2023/02/13 08:14:09;;;;;;;26.27;7.15;;;;;;;1.29;69.56;101435.87;1687518;85;21054;-69
2023/02/13 08:16:38;;;;;;;30.72;8.40;;;;;;;1.32;69.02;101432.11;1687100;85;21547;-69
2023/02/13 08:19:07;;;;;;;22.85;8.33;;;;;;;1.28;69.12;101431.45;1687257;85;21526;-67
2023/02/13 08:21:39;;;;;;;38.13;9.63;;;;;;;1.31;69.31;101433.95;1687358;85;21058;-69
2023/02/13 08:24:10;;;;;;;25.40;8.83;;;;;;;1.36;69.38;101425.02;1687373;85;21924;-67
2023/02/13 08:26:39;;;;;;;19.32;8.18;;;;;;;1.38;69.32;101432.52;1687091;85;21106;-70
2023/02/13 08:29:10;;;;;;;39.38;8.78;;;;;;;1.39;69.05;101435.59;1687279;85;21034;-70
2023/02/13 08:31:38;;;;;;;23.85;7.85;;;;;;;1.36;69.18;101438.52;1687064;85;21050;-69
2023/02/13 08:34:07;;;;;;;34.40;9.08;;;;;;;1.35;69.25;101434.59;1687017;85;21062;-69
2023/02/13 08:36:36;;;;;;;37.75;8.63;;;;;;;1.31;69.32;101427.20;1687114;85;21439;-71
2023/02/13 08:39:05;;;;;;;18.73;7.58;;;;;;;1.30;69.44;101428.62;1687426;84;21451;-70
2023/02/13 08:41:34;;;;;;;27.52;8.18;;;;;;;1.28;69.61;101419.30;1687055;85;21990;-71
2023/02/13 08:44:04;;;;;;;31.97;9.15;;;;;;;1.25;69.79;101417.69;1638506;87;21126;-70
2023/02/13 08:46:34;;;;;;;33.78;9.03;;;;;;;1.23;69.95;101417.42;1673861;86;21022;-70
2023/02/13 08:49:03;;;;;;;21.35;8.23;;;;;;;1.22;70.10;101409.81;1674024;85;21105;-68
2023/02/13 08:51:32;;;;;;;20.50;8.30;;;;;;;1.21;70.28;101414.84;1673866;86;21569;-68
2023/02/13 08:54:01;;;;;;;17.17;7.85;;;;;;;1.22;70.39;101403.55;1673898;86;21436;-66
2023/02/13 08:56:29;;;;;;;24.87;8.20;;;;;;;1.23;70.52;101401.22;1674213;86;21535;-68
2023/02/13 08:58:58;;;;;;;17.35;7.45;;;;;;;1.23;70.53;101409.33;1673855;86;21092;-71
2023/02/13 09:01:28;;;;;;;37.95;8.90;;;;;;;1.24;70.64;101416.45;1684200;83;21473;-65
2023/02/13 09:03:57;;;;;;;19.87;7.60;;;;;;;1.24;70.59;101409.70;1734829;82;21450;-66
2023/02/13 09:06:26;;;;;;;20.45;9.13;;;;;;;1.21;70.88;101412.14;1734640;83;21469;-65
2023/02/13 09:08:55;;;;;;;29.45;8.00;;;;;;;1.24;71.20;101412.39;1734904;82;21506;-67
2023/02/13 09:11:23;;;;;;;22.98;7.83;;;;;;;1.23;71.13;101418.28;1734892;83;21007;-66
2023/02/13 09:13:53;;;;;;;22.62;7.75;;;;;;;1.22;71.47;101407.59;1729962;81;21990;-65
2023/02/13 09:16:22;;;;;;;35.38;8.80;;;;;;;1.18;71.77;101412.84;1733951;82;21065;-67
2023/02/13 09:18:51;;;;;;;16.15;7.37;;;;;;;1.18;72.17;101416.41;1693702;85;21075;-66
2023/02/13 09:21:22;;;;;;;19.42;7.92;;;;;;;1.16;72.66;101405.35;1671193;85;21459;-66
2023/02/13 09:23:51;;;;;;;13.72;7.22;;;;;;;1.11;73.27;101412.92;1694295;85;21538;-67
2023/02/13 09:26:21;;;;;;;15.90;7.53;;;;;;;1.08;73.50;101409.10;1694299;84;21036;-64
2023/02/13 09:28:50;;;;;;;18.75;7.70;;;;;;;1.07;73.92;101400.14;1694128;84;21456;-66
2023/02/13 09:31:23;;;;;;;16.27;7.58;;;;;;;1.01;74.32;101391.14;1699457;84;21030;-66
2023/02/13 09:33:52;;;;;;;20.82;7.35;;;;;;;0.95;74.86;101388.41;1699340;84;21065;-67
2023/02/13 09:36:23;;;;;;;16.10;7.28;;;;;;;0.92;75.68;101379.67;1699333;84;21046;-65
2023/02/13 09:38:54;;;;;;;16.05;7.70;;;;;;;0.92;75.98;101381.89;1699290;84;21038;-66
2023/02/13 09:41:30;;;;;;;29.02;8.50;;;;;;;0.92;76.15;101377.84;1699529;84;21006;-66
2023/02/13 09:44:32;;;;;;;25.20;9.05;;;;;;;0.95;76.36;101374.91;1699407;84;21458;-66
2023/02/13 09:46:46;;;;;;;16.50;7.90;;;;;;;0.98;76.61;101377.02;1696560;84;21194;-67
2023/02/13 09:49:19;;;;;;;37.50;8.60;;;;;;;1.01;76.74;101369.56;1697989;84;21652;-64
2023/02/13 09:51:51;;;;;;;15.25;7.85;;;;;;;1.04;76.87;101364.42;1690065;85;21070;-64
2023/02/13 09:54:24;;;;;;;22.10;8.85;;;;;;;1.07;77.08;101362.84;1690196;85;21560;-69
2023/02/13 09:57:01;;;;;;;21.65;8.68;;;;;;;1.09;77.13;101363.11;1667481;85;21098;-65
2023/02/13 10:00:12;;;;;;;16.50;9.18;;;;;;;1.13;77.36;101361.05;1690222;85;21086;-64
2023/02/13 10:03:18;;;;;;;17.50;8.78;;;;;;;1.19;77.47;101356.53;1690067;84;21478;-66
2023/02/13 10:06:26;;;;;;;18.32;8.70;;;;;;;1.26;77.51;101340.26;1690039;85;21054;-66
2023/02/13 10:09:12;;;;;;;17.63;8.00;;;;;;;1.32;77.59;101341.18;1690701;84;21106;-66
2023/02/13 10:12:01;;;;;;;18.92;8.95;;;;;;;1.36;77.60;101335.92;1690182;85;21038;-66
2023/02/13 10:14:53;;;;;;;17.45;8.83;;;;;;;1.41;77.71;101322.94;1691876;83;21064;-66
2023/02/13 10:17:41;;;;;;;20.57;7.75;;;;;;;1.45;77.81;101314.97;1689610;85;21089;-65
2023/02/13 10:20:34;;;;;;;14.93;7.95;;;;;;;1.52;77.74;101316.23;1690064;85;21032;-64
2023/02/13 10:23:43;;;;;;;30.23;9.03;;;;;;;1.55;77.68;101305.67;1658860;86;21101;-66
2023/02/13 10:26:21;;;;;;;21.80;8.40;;;;;;;1.59;77.95;101298.58;1682700;85;21177;-65
2023/02/13 10:31:48;;;;;;;11.43;6.33;;;;;;;1.66;78.02;101297.61;1688489;85;21535;-67
2023/02/13 10:34:17;;;;;;;45.17;9.95;;;;;;;1.72;78.08;101289.52;1680260;85;21459;-65
2023/02/13 10:36:47;;;;;;;17.35;7.97;;;;;;;1.73;78.01;101297.99;1680051;85;21126;-65
2023/02/13 10:39:27;;;;;;;17.90;8.25;;;;;;;1.76;78.32;101292.35;1680543;85;21079;-63
2023/02/13 10:42:21;;;;;;;25.88;9.23;;;;;;;1.79;78.20;101288.06;1680324;85;21094;-65
2023/02/13 10:45:06;;;;;;;22.13;9.25;;;;;;;1.83;78.14;101290.41;1680180;85;21635;-64
2023/02/13 10:47:52;;;;;;;20.85;9.10;;;;;;;1.87;78.12;101285.63;1682438;85;21082;-65
2023/02/13 10:50:35;;;;;;;21.15;8.35;;;;;;;1.90;78.21;101280.84;1667022;86;21080;-64
2023/02/13 10:53:37;;;;;;;20.10;8.68;;;;;;;1.94;78.21;101282.80;1660730;86;21043;-64
2023/02/13 10:56:26;;;;;;;18.25;8.30;;;;;;;1.99;78.24;101287.39;1727158;82;21426;-65
2023/02/13 10:59:28;;;;;;;15.85;7.92;;;;;;;2.05;78.37;101281.50;1726916;83;21041;-64
2023/02/13 11:02:03;;;;;;;15.90;7.80;;;;;;;2.13;78.45;101282.24;1726984;82;21098;-65
2023/02/13 11:04:33;;;;;;;18.60;8.35;;;;;;;2.15;78.42;101281.14;1727281;83;21107;-64
2023/02/13 11:07:04;;;;;;;19.80;8.43;;;;;;;2.13;78.47;101285.80;1697365;84;21101;-67
2023/02/13 11:09:39;;;;;;;17.10;7.22;;;;;;;2.14;78.69;101278.56;1697716;84;21046;-64
2023/02/13 11:12:29;;;;;;;22.75;9.08;;;;;;;2.16;78.91;101285.56;1697721;84;21552;-64
2023/02/13 11:15:01;;;;;;;17.62;7.78;;;;;;;2.19;79.04;101279.91;1697465;84;21759;-65
2023/02/13 11:17:35;;;;;;;15.43;8.35;;;;;;;2.25;79.18;101280.41;1713815;83;21074;-65
2023/02/13 11:20:07;;;;;;;20.90;9.08;;;;;;;2.30;79.15;101276.84;1717115;83;21140;-63
2023/02/13 11:22:38;;;;;;;16.00;7.92;;;;;;;2.31;79.11;101269.09;1697026;84;21501;-65
2023/02/13 11:25:24;;;;;;;16.95;7.12;;;;;;;2.34;79.15;101269.70;1710286;83;21105;-66
2023/02/13 11:28:15;;;;;;;25.52;8.28;;;;;;;2.37;79.13;101268.11;1725920;83;21026;-66
2023/02/13 11:30:47;;;;;;;17.98;7.78;;;;;;;2.41;79.11;101267.37;1726422;83;21096;-65
2023/02/13 11:33:23;;;;;;;21.45;8.03;;;;;;;2.42;79.08;101263.19;1726595;83;21025;-67
2023/02/13 11:36:05;;;;;;;20.15;7.80;;;;;;;2.47;79.04;101269.58;1726403;83;22087;-65
2023/02/13 11:38:34;;;;;;;15.05;6.87;;;;;;;2.53;79.05;101273.13;1726986;83;21014;-65
2023/02/13 11:41:11;;;;;;;13.98;7.25;;;;;;;2.55;78.99;101273.38;1727125;83;21489;-66
2023/02/13 11:43:51;;;;;;;22.82;7.58;;;;;;;2.57;79.06;101264.28;1726883;83;21021;-65
2023/02/13 11:46:24;;;;;;;16.02;6.75;;;;;;;2.54;79.05;101252.72;1726942;83;21068;-67
2023/02/13 11:49:00;;;;;;;19.45;7.70;;;;;;;2.52;79.13;101262.81;1727057;83;21080;-66
2023/02/13 11:51:39;;;;;;;11.55;5.90;;;;;;;2.52;79.37;101256.05;1725053;83;21531;-66
2023/02/13 11:54:40;;;;;;;25.37;8.43;;;;;;;2.53;79.47;101255.55;1708182;83;21038;-66
2023/02/13 11:57:30;;;;;;;15.63;6.67;;;;;;;2.51;79.63;101244.00;1724457;83;21488;-65
2023/02/13 12:00:00;;;;;;;16.42;7.08;;;;;;;2.52;79.79;101230.34;1724341;82;21117;-67
2023/02/13 12:02:33;;;;;;;14.40;6.83;;;;;;;2.52;80.08;101226.78;1724366;83;21460;-66
2023/02/13 12:05:21;;;;;;;15.15;7.08;;;;;;;2.53;80.06;101229.85;1723548;83;21030;-66
2023/02/13 12:07:59;;;;;;;36.17;9.68;;;;;;;2.54;80.13;101222.97;1724529;83;21124;-68
2023/02/13 12:10:31;;;;;;;12.63;7.05;;;;;;;2.53;80.42;101214.98;1678509;85;21078;-66
2023/02/13 12:13:16;;;;;;;15.55;6.47;;;;;;;2.54;80.63;101223.46;1678843;85;21102;-66
2023/02/13 12:15:45;;;;;;;13.40;6.55;;;;;;;2.51;80.82;101211.05;1679478;85;21108;-65
2023/02/13 12:18:34;;;;;;;16.02;7.22;;;;;;;2.51;81.00;101211.54;1688400;85;21119;-64
2023/02/13 12:21:19;;;;;;;15.68;6.10;;;;;;;2.53;81.28;101210.42;1685646;84;20999;-66
2023/02/13 12:24:11;;;;;;;26.95;7.12;;;;;;;2.58;81.33;101208.70;1681198;84;21105;-65
2023/02/13 12:26:45;;;;;;;13.03;5.50;;;;;;;2.59;81.43;101200.95;1681162;85;21055;-64
2023/02/13 12:29:34;;;;;;;12.23;6.78;;;;;;;2.59;81.68;101202.30;1720089;82;21027;-66
2023/02/13 12:32:41;;;;;;;11.30;5.92;;;;;;;2.55;81.82;101198.98;1739749;82;21050;-65
2023/02/13 12:35:51;;;;;;;9.95;5.83;;;;;;;2.54;82.02;101197.76;1739943;82;21067;-65
2023/02/13 12:38:47;;;;;;;16.42;6.10;;;;;;;2.58;82.32;101189.76;1739826;82;21019;-65
2023/02/13 12:41:20;;;;;;;9.55;5.42;;;;;;;2.63;82.53;101196.17;1739664;82;21017;-66
2023/02/13 12:44:16;;;;;;;12.60;6.00;;;;;;;2.68;82.80;101188.53;1739873;82;21520;-65
2023/02/13 12:46:57;;;;;;;13.53;6.72;;;;;;;2.71;82.84;101183.73;1739750;82;21496;-66
2023/02/13 12:49:42;;;;;;;18.25;7.22;;;;;;;2.73;82.81;101174.12;1730489;82;21006;-65
2023/02/13 12:52:38;;;;;;;22.60;7.92;;;;;;;2.73;82.85;101163.30;1739883;82;21454;-66